createdAt,value
2017-06-02T00:00:38.512Z,17.4
2017-06-02T00:01:41.611Z,17.4
2017-06-02T00:02:43.822Z,17.3
2017-06-02T00:03:46.671Z,17.3
2017-06-02T00:04:49.517Z,17.3
2017-06-02T00:05:52.371Z,17.3
2017-06-02T00:06:55.248Z,17.3
2017-06-02T00:07:58.092Z,17.2
2017-06-02T00:09:00.436Z,17.2
2017-06-02T00:10:03.283Z,17.1
2017-06-02T00:11:05.994Z,17.1
2017-06-02T00:12:08.960Z,17.1
2017-06-02T00:13:11.804Z,17
2017-06-02T00:14:14.649Z,17.1
2017-06-02T00:15:16.858Z,17.1
2017-06-02T00:16:19.936Z,17.1
2017-06-02T00:17:23.030Z,17.1
2017-06-02T00:18:25.376Z,17.1
2017-06-02T00:19:28.229Z,17.1
2017-06-02T00:20:31.074Z,17.1
2017-06-02T00:21:33.922Z,17.1
2017-06-02T00:22:37.019Z,17.1
2017-06-02T00:23:39.095Z,17
2017-06-02T00:24:41.942Z,17
2017-06-02T00:25:44.658Z,17.1
2017-06-02T00:26:47.511Z,17.1
2017-06-02T00:27:50.664Z,17.1
2017-06-02T00:28:53.008Z,17
2017-06-02T00:29:55.853Z,17
2017-06-02T00:30:58.698Z,17
2017-06-02T00:32:01.066Z,17
2017-06-02T00:33:04.164Z,17
2017-06-02T00:34:06.872Z,17
2017-06-02T00:35:09.725Z,17
2017-06-02T00:36:12.439Z,17
2017-06-02T00:37:15.336Z,17
2017-06-02T00:38:17.983Z,17
2017-06-02T00:39:20.826Z,16.8
2017-06-02T00:40:23.171Z,16.9
2017-06-02T00:41:25.746Z,16.9
2017-06-02T00:42:28.966Z,16.8
2017-06-02T00:43:32.118Z,16.9
2017-06-02T00:44:34.462Z,16.9
2017-06-02T00:45:37.309Z,16.9
2017-06-02T00:46:39.653Z,16.9
2017-06-02T00:47:42.365Z,16.8
2017-06-02T00:48:45.839Z,16.8
2017-06-02T00:49:48.182Z,16.8
2017-06-02T00:50:50.889Z,16.8
2017-06-02T00:51:53.734Z,16.8
2017-06-02T00:52:56.580Z,16.8
2017-06-02T00:53:59.409Z,16.9
2017-06-02T00:55:02.124Z,16.9
2017-06-02T00:56:04.465Z,16.9
2017-06-02T00:57:07.316Z,16.9
2017-06-02T00:58:10.024Z,16.8
2017-06-02T00:59:13.038Z,16.8
2017-06-02T01:00:15.615Z,16.8
2017-06-02T01:01:18.320Z,16.8
2017-06-02T01:02:21.025Z,16.7
2017-06-02T01:03:23.870Z,16.7
2017-06-02T01:04:27.012Z,16.6
2017-06-02T01:05:29.352Z,16.6
2017-06-02T01:06:32.067Z,16.6
2017-06-02T01:07:34.984Z,16.6
2017-06-02T01:08:37.835Z,16.6
2017-06-02T01:09:40.434Z,16.6
2017-06-02T01:10:43.281Z,16.6
2017-06-02T01:11:46.689Z,16.6
2017-06-02T01:12:48.525Z,16.6
2017-06-02T01:13:51.235Z,16.6
2017-06-02T01:14:54.386Z,16.6
2017-06-02T01:15:56.790Z,16.5
2017-06-02T01:16:59.641Z,16.5
2017-06-02T01:18:02.486Z,16.5
2017-06-02T01:19:05.201Z,16.5
2017-06-02T01:20:08.211Z,16.5
2017-06-02T01:21:10.554Z,16.5
2017-06-02T01:22:13.400Z,16.5
2017-06-02T01:23:16.111Z,16.5
2017-06-02T01:24:18.960Z,16.5
2017-06-02T01:25:21.983Z,16.5
2017-06-02T01:26:24.189Z,16.5
2017-06-02T01:27:26.903Z,16.5
2017-06-02T01:28:29.747Z,16.5
2017-06-02T01:29:32.597Z,16.5
2017-06-02T01:30:35.769Z,16.5
2017-06-02T01:31:38.116Z,16.4
2017-06-02T01:32:40.826Z,16.4
2017-06-02T01:33:43.672Z,16.3
2017-06-02T01:34:46.521Z,16.4
2017-06-02T01:35:49.483Z,16.4
2017-06-02T01:36:51.825Z,16.3
2017-06-02T01:37:54.671Z,16.3
2017-06-02T01:38:57.383Z,16.3
2017-06-02T01:40:00.230Z,16.3
2017-06-02T01:41:02.826Z,16.3
2017-06-02T01:42:05.541Z,16.3
2017-06-02T01:43:08.131Z,16.3
2017-06-02T01:44:10.844Z,16.3
2017-06-02T01:45:13.691Z,16.3
2017-06-02T01:46:16.651Z,16.3
2017-06-02T01:47:19.368Z,16.3
2017-06-02T01:48:21.580Z,16.3
2017-06-02T01:49:24.428Z,16.3
2017-06-02T01:50:27.272Z,16.3
2017-06-02T01:51:30.369Z,16.3
2017-06-02T01:52:32.711Z,16.3
2017-06-02T01:53:35.424Z,16.3
2017-06-02T01:54:38.137Z,16.3
2017-06-02T01:55:40.983Z,16.3
2017-06-02T01:56:44.132Z,16.2
2017-06-02T01:57:46.471Z,16.1
2017-06-02T01:58:49.180Z,16.1
2017-06-02T01:59:52.026Z,16.1
2017-06-02T02:00:54.874Z,16.1
2017-06-02T02:01:58.027Z,16.1
2017-06-02T02:03:00.372Z,16.1
2017-06-02T02:04:03.220Z,16.1
2017-06-02T02:05:05.562Z,16.1
2017-06-02T02:06:08.146Z,16.1
2017-06-02T02:08:14.157Z,16
2017-06-02T02:09:16.498Z,16
2017-06-02T02:10:19.075Z,16
2017-06-02T02:11:21.921Z,16
2017-06-02T02:12:24.640Z,16
2017-06-02T02:13:27.800Z,16
2017-06-02T02:14:30.151Z,16
2017-06-02T02:15:32.860Z,16
2017-06-02T02:16:35.704Z,16
2017-06-02T02:17:38.546Z,16.1
2017-06-02T02:18:41.645Z,16.1
2017-06-02T02:19:43.989Z,16.1
2017-06-02T02:20:46.839Z,16
2017-06-02T02:21:49.690Z,16
2017-06-02T02:22:52.031Z,16
2017-06-02T02:23:55.127Z,16
2017-06-02T02:24:57.833Z,16
2017-06-02T02:26:00.178Z,16
2017-06-02T02:27:02.888Z,16
2017-06-02T02:28:06.028Z,16
2017-06-02T02:29:09.125Z,15.9
2017-06-02T02:30:11.329Z,15.9
2017-06-02T02:31:14.177Z,15.9
2017-06-02T02:32:16.894Z,15.9
2017-06-02T02:33:19.744Z,15.8
2017-06-02T02:34:22.067Z,15.8
2017-06-02T02:35:24.913Z,15.8
2017-06-02T02:36:27.763Z,15.8
2017-06-02T02:37:30.614Z,15.8
2017-06-02T02:38:33.326Z,15.8
2017-06-02T02:39:36.425Z,15.7
2017-06-02T02:40:38.770Z,15.8
2017-06-02T02:41:41.622Z,15.8
2017-06-02T02:42:43.832Z,15.8
2017-06-02T02:43:47.052Z,15.8
2017-06-02T02:44:50.063Z,15.8
2017-06-02T02:45:52.406Z,15.8
2017-06-02T02:46:55.257Z,15.8
2017-06-02T02:47:57.596Z,15.8
2017-06-02T02:49:00.440Z,15.8
2017-06-02T02:50:03.401Z,15.8
2017-06-02T02:51:05.740Z,15.8
2017-06-02T02:52:08.454Z,15.8
2017-06-02T02:53:11.167Z,15.7
2017-06-02T02:54:14.385Z,15.7
2017-06-02T02:55:16.903Z,15.8
2017-06-02T02:56:19.746Z,15.8
2017-06-02T02:57:21.952Z,15.8
2017-06-02T02:58:25.167Z,15.8
2017-06-02T02:59:27.883Z,15.8
2017-06-02T03:00:30.981Z,15.8
2017-06-02T03:01:33.195Z,15.8
2017-06-02T03:02:36.040Z,15.7
2017-06-02T03:03:38.885Z,15.7
2017-06-02T03:04:41.225Z,15.6
2017-06-02T03:05:44.321Z,15.6
2017-06-02T03:06:46.662Z,15.7
2017-06-02T03:07:49.510Z,15.7
2017-06-02T03:08:52.361Z,15.7
2017-06-02T03:09:55.071Z,15.7
2017-06-02T03:10:58.168Z,15.6
2017-06-02T03:12:00.510Z,15.6
2017-06-02T03:13:03.357Z,15.6
2017-06-02T03:15:08.344Z,15.6
2017-06-02T03:16:11.678Z,15.6
2017-06-02T03:17:13.953Z,15.6
2017-06-02T03:18:16.663Z,15.6
2017-06-02T03:20:22.157Z,15.6
2017-06-02T03:21:25.253Z,15.6
2017-06-02T03:22:27.834Z,15.6
2017-06-02T03:23:30.679Z,15.6
2017-06-02T03:24:33.525Z,15.6
2017-06-02T03:25:35.871Z,15.6
2017-06-02T03:26:38.967Z,15.6
2017-06-02T03:27:41.312Z,15.6
2017-06-02T03:28:44.019Z,15.5
2017-06-02T03:29:46.859Z,15.5
2017-06-02T03:30:49.576Z,15.5
2017-06-02T03:31:52.537Z,15.6
2017-06-02T03:32:55.245Z,15.6
2017-06-02T03:33:58.090Z,15.6
2017-06-02T03:35:00.297Z,15.6
2017-06-02T03:36:03.161Z,15.6
2017-06-02T03:37:06.128Z,15.6
2017-06-02T03:38:08.836Z,15.6
2017-06-02T03:39:11.682Z,15.6
2017-06-02T03:40:14.023Z,15.6
2017-06-02T03:41:16.869Z,15.6
2017-06-02T03:42:19.961Z,15.6
2017-06-02T03:43:22.299Z,15.6
2017-06-02T03:44:25.710Z,15.6
2017-06-02T03:45:28.053Z,15.6
2017-06-02T03:46:30.393Z,15.6
2017-06-02T03:47:33.492Z,15.6
2017-06-02T03:48:35.832Z,15.6
2017-06-02T03:49:38.674Z,15.6
2017-06-02T03:50:41.523Z,15.6
2017-06-02T03:51:44.365Z,15.6
2017-06-02T03:52:47.329Z,15.6
2017-06-02T03:53:49.534Z,15.6
2017-06-02T03:54:52.239Z,15.6
2017-06-02T03:55:54.817Z,15.7
2017-06-02T03:56:58.032Z,15.7
2017-06-02T03:58:01.133Z,15.7
2017-06-02T03:59:03.478Z,15.7
2017-06-02T04:00:06.325Z,15.7
2017-06-02T04:01:09.038Z,15.8
2017-06-02T04:02:11.884Z,15.8
2017-06-02T04:03:14.850Z,15.8
2017-06-02T04:04:16.918Z,15.8
2017-06-02T04:05:19.766Z,15.8
2017-06-02T04:06:22.614Z,15.8
2017-06-02T04:07:25.459Z,15.8
2017-06-02T04:08:28.570Z,15.9
2017-06-02T04:09:30.917Z,15.9
2017-06-02T04:10:33.764Z,15.9
2017-06-02T04:11:36.609Z,16
2017-06-02T04:12:39.453Z,16
2017-06-02T04:13:42.547Z,16
2017-06-02T04:14:44.887Z,16
2017-06-02T04:15:47.731Z,16
2017-06-02T04:16:50.577Z,16
2017-06-02T04:17:52.916Z,16
2017-06-02T04:19:58.794Z,16
2017-06-02T04:21:01.639Z,16
2017-06-02T04:22:04.347Z,16.1
2017-06-02T04:23:07.189Z,16.1
2017-06-02T04:24:09.901Z,16.1
2017-06-02T04:25:12.735Z,16.1
2017-06-02T04:27:17.855Z,16.1
2017-06-02T04:28:20.696Z,16.1
2017-06-02T04:29:23.539Z,16.1
2017-06-02T04:30:26.633Z,16.1
2017-06-02T04:31:29.345Z,16.1
2017-06-02T04:32:32.052Z,16.1
2017-06-02T04:33:34.894Z,16.1
2017-06-02T04:34:37.760Z,16.1
2017-06-02T04:35:40.854Z,16.1
2017-06-02T04:36:43.060Z,16.1
2017-06-02T04:37:45.905Z,16.2
2017-06-02T04:38:48.617Z,16.2
2017-06-02T04:39:51.197Z,16.3
2017-06-02T04:40:54.663Z,16.3
2017-06-02T04:41:57.003Z,16.3
2017-06-02T04:42:59.709Z,16.3
2017-06-02T04:44:02.427Z,16.3
2017-06-02T04:45:05.838Z,16.3
2017-06-02T04:46:08.433Z,16.3
2017-06-02T04:47:10.873Z,16.3
2017-06-02T04:48:13.713Z,16.4
2017-06-02T04:49:16.554Z,16.4
2017-06-02T04:50:19.398Z,16.4
2017-06-02T04:51:22.502Z,16.4
2017-06-02T04:53:27.760Z,16.4
2017-06-02T04:54:30.606Z,16.5
2017-06-02T04:55:33.686Z,16.5
2017-06-02T04:56:36.648Z,16.5
2017-06-02T04:57:39.490Z,16.5
2017-06-02T04:58:41.839Z,16.5
2017-06-02T04:59:44.679Z,16.5
2017-06-02T05:00:47.525Z,16.5
2017-06-02T05:01:50.630Z,16.5
2017-06-02T05:02:53.475Z,16.5
2017-06-02T05:03:56.321Z,16.5
2017-06-02T05:04:59.036Z,16.5
2017-06-02T05:06:01.888Z,16.5
2017-06-02T05:07:04.983Z,16.5
2017-06-02T05:08:07.187Z,16.5
2017-06-02T05:09:09.892Z,16.6
2017-06-02T05:10:13.109Z,16.6
2017-06-02T05:11:15.823Z,16.6
2017-06-02T05:12:18.972Z,16.6
2017-06-02T05:13:21.316Z,16.6
2017-06-02T05:14:24.529Z,16.6
2017-06-02T05:16:30.151Z,16.6
2017-06-02T05:17:33.165Z,16.6
2017-06-02T05:18:35.505Z,16.6
2017-06-02T05:19:38.731Z,16.7
2017-06-02T05:20:41.576Z,16.7
2017-06-02T05:21:44.426Z,16.8
2017-06-02T05:22:47.532Z,16.7
2017-06-02T05:23:49.876Z,16.7
2017-06-02T05:24:52.721Z,16.8
2017-06-02T05:25:55.299Z,16.8
2017-06-02T05:26:58.650Z,16.8
2017-06-02T05:28:01.616Z,16.8
2017-06-02T05:29:03.688Z,16.8
2017-06-02T05:30:06.907Z,16.8
2017-06-02T05:31:09.623Z,16.8
2017-06-02T05:32:12.836Z,16.8
2017-06-02T05:33:15.935Z,16.8
2017-06-02T05:34:18.272Z,16.8
2017-06-02T05:35:20.847Z,16.8
2017-06-02T05:36:24.066Z,16.9
2017-06-02T05:37:26.644Z,17
2017-06-02T05:38:30.114Z,17
2017-06-02T05:40:35.377Z,17
2017-06-02T05:41:38.221Z,17
2017-06-02T05:42:40.928Z,17
2017-06-02T05:43:44.392Z,17
2017-06-02T05:44:47.100Z,17
2017-06-02T05:46:52.858Z,17
2017-06-02T05:47:55.628Z,17
2017-06-02T05:48:58.725Z,17
2017-06-02T05:50:00.933Z,17.1
2017-06-02T05:51:04.279Z,17.1
2017-06-02T05:52:06.986Z,17.1
2017-06-02T05:53:09.831Z,17
2017-06-02T05:54:12.795Z,17
2017-06-02T05:55:15.509Z,17
2017-06-02T05:56:18.353Z,17
2017-06-02T05:57:21.195Z,17
2017-06-02T05:58:24.041Z,17.1
2017-06-02T05:59:27.142Z,17.1
2017-06-02T06:00:29.855Z,17.2
2017-06-02T06:01:32.558Z,17.2
2017-06-02T06:02:35.906Z,17.2
2017-06-02T06:03:38.749Z,17.2
2017-06-02T06:04:41.711Z,17.2
2017-06-02T06:05:44.420Z,17.2
2017-06-02T06:06:47.261Z,17.2
2017-06-02T06:07:50.107Z,17.2
2017-06-02T06:08:52.957Z,17.2
2017-06-02T06:09:55.918Z,17.3
2017-06-02T06:10:58.765Z,17.2
2017-06-02T06:12:02.044Z,17.1
2017-06-02T06:13:04.275Z,17.2
2017-06-02T06:14:07.384Z,17.2
2017-06-02T06:15:10.347Z,17.2
2017-06-02T06:16:13.189Z,17.1
2017-06-02T06:17:15.904Z,17.1
2017-06-02T06:18:18.676Z,17.2
2017-06-02T06:19:21.387Z,17.1
2017-06-02T06:20:24.717Z,17.1
2017-06-02T06:21:27.425Z,17.2
2017-06-02T06:22:30.273Z,17.2
2017-06-02T06:23:33.116Z,17.3
2017-06-02T06:24:35.961Z,17.3
2017-06-02T06:25:39.061Z,17.3
2017-06-02T06:26:41.903Z,17.3
2017-06-02T06:27:44.751Z,17.4
2017-06-02T06:28:47.599Z,17.4
2017-06-02T06:29:50.441Z,17.5
2017-06-02T06:30:53.408Z,17.5
2017-06-02T06:31:56.115Z,17.5
2017-06-02T06:32:58.961Z,17.5
2017-06-02T06:34:01.806Z,17.5
2017-06-02T06:35:04.653Z,17.5
2017-06-02T06:36:07.613Z,17.5
2017-06-02T06:37:10.825Z,17.5
2017-06-02T06:38:13.675Z,17.5
2017-06-02T06:40:19.305Z,17.6
2017-06-02T06:41:22.404Z,17.7
2017-06-02T06:42:25.115Z,17.6
2017-06-02T06:43:27.831Z,17.7
2017-06-02T06:44:31.241Z,17.8
2017-06-02T06:45:33.584Z,17.8
2017-06-02T06:46:37.253Z,17.8
2017-06-02T06:47:39.593Z,17.8
2017-06-02T06:48:42.305Z,17.8
2017-06-02T06:49:45.015Z,17.9
2017-06-02T06:50:48.237Z,17.8
2017-06-02T06:51:51.333Z,17.8
2017-06-02T06:52:54.044Z,17.8
2017-06-02T06:53:56.754Z,17.8
2017-06-02T06:55:00.098Z,17.8
2017-06-02T06:56:02.947Z,17.9
2017-06-02T06:57:06.047Z,17.9
2017-06-02T06:58:08.281Z,17.9
2017-06-02T06:59:11.365Z,18
2017-06-02T07:00:14.211Z,18.1
2017-06-02T07:01:17.561Z,18
2017-06-02T07:02:20.657Z,18
2017-06-02T07:02:50.649Z,18
2017-06-02T07:03:23.295Z,18
2017-06-02T07:04:26.135Z,18
2017-06-02T07:05:28.843Z,18.1
2017-06-02T07:06:31.692Z,18.1
2017-06-02T07:07:35.295Z,18.3
2017-06-02T07:08:37.637Z,18.3
2017-06-02T07:09:40.483Z,18.2
2017-06-02T07:11:46.743Z,18.2
2017-06-02T07:12:49.702Z,18.2
2017-06-02T07:13:52.560Z,18.1
2017-06-02T07:14:55.403Z,18.1
2017-06-02T07:15:58.245Z,18.2
2017-06-02T07:17:01.090Z,18.2
2017-06-02T07:18:04.231Z,18.3
2017-06-02T07:19:06.945Z,18.3
2017-06-02T07:20:09.657Z,18.4
2017-06-02T07:21:12.867Z,18.4
2017-06-02T07:22:15.712Z,18.4
2017-06-02T07:23:18.859Z,18.4
2017-06-02T07:24:21.702Z,18.4
2017-06-02T07:25:24.417Z,18.5
2017-06-02T07:26:27.633Z,18.5
2017-06-02T07:27:31.045Z,18.5
2017-06-02T07:28:33.639Z,18.5
2017-06-02T07:29:36.485Z,18.5
2017-06-02T07:30:39.198Z,18.5
2017-06-02T07:32:44.824Z,18.5
2017-06-02T07:33:48.431Z,18.5
2017-06-02T07:34:51.008Z,18.6
2017-06-02T07:35:53.856Z,18.8
2017-06-02T07:37:59.983Z,18.8
2017-06-02T07:39:02.949Z,18.8
2017-06-02T07:40:05.792Z,18.8
2017-06-02T07:41:08.662Z,18.8
2017-06-02T07:42:11.241Z,18.8
2017-06-02T07:43:14.589Z,19
2017-06-02T07:44:17.686Z,19
2017-06-02T07:45:20.397Z,18.9
2017-06-02T07:46:23.123Z,18.9
2017-06-02T07:47:26.473Z,18.8
2017-06-02T07:48:29.320Z,18.8
2017-06-02T07:49:32.421Z,18.8
2017-06-02T07:50:35.134Z,18.9
2017-06-02T07:51:37.983Z,19
2017-06-02T07:53:44.245Z,19.2
2017-06-02T07:54:47.343Z,19.1
2017-06-02T07:55:50.183Z,19
2017-06-02T07:56:53.026Z,19.1
2017-06-02T07:57:55.871Z,19.1
2017-06-02T07:58:58.715Z,19.2
2017-06-02T08:00:01.812Z,19.2
2017-06-02T08:01:04.663Z,19.3
2017-06-02T08:02:07.508Z,19.2
2017-06-02T08:03:10.727Z,19.2
2017-06-02T08:04:13.572Z,19.2
2017-06-02T08:05:16.675Z,19.1
2017-06-02T08:06:19.528Z,19.1
2017-06-02T08:07:22.251Z,19.2
2017-06-02T08:08:25.475Z,19.1
2017-06-02T08:09:28.321Z,19.2
2017-06-02T08:10:31.417Z,19.3
2017-06-02T08:11:34.131Z,19.2
2017-06-02T08:12:36.975Z,19.2
2017-06-02T08:13:40.321Z,19.2
2017-06-02T08:14:42.900Z,19.3
2017-06-02T08:15:46.502Z,19.3
2017-06-02T08:16:48.845Z,19.3
2017-06-02T08:17:51.690Z,19.4
2017-06-02T08:18:55.039Z,19.4
2017-06-02T08:19:57.885Z,19.4
2017-06-02T08:21:00.848Z,19.4
2017-06-02T08:22:03.424Z,19.5
2017-06-02T08:23:06.698Z,19.5
2017-06-02T08:24:09.547Z,19.5
2017-06-02T08:25:12.945Z,19.5
2017-06-02T08:26:15.543Z,19.5
2017-06-02T08:27:18.388Z,19.5
2017-06-02T08:28:21.232Z,19.6
2017-06-02T08:30:27.363Z,19.6
2017-06-02T08:31:30.462Z,19.6
2017-06-02T08:32:33.304Z,19.6
2017-06-02T08:33:36.144Z,19.5
2017-06-02T08:34:38.987Z,19.6
2017-06-02T08:35:42.337Z,19.6
2017-06-02T08:36:45.297Z,19.6
2017-06-02T08:37:48.141Z,19.6
2017-06-02T08:38:50.851Z,19.6
2017-06-02T08:40:57.115Z,19.7
2017-06-02T08:43:03.180Z,19.7
2017-06-02T08:44:06.027Z,19.8
2017-06-02T08:45:08.606Z,19.8
2017-06-02T08:46:11.955Z,19.8
2017-06-02T08:47:14.668Z,19.9
2017-06-02T08:48:18.270Z,19.9
2017-06-02T08:49:20.611Z,20
2017-06-02T08:50:23.961Z,20
2017-06-02T08:51:26.675Z,20
2017-06-02T08:52:29.517Z,20
2017-06-02T08:53:32.985Z,20
2017-06-02T08:54:35.697Z,20
2017-06-02T08:55:38.541Z,20
2017-06-02T08:56:41.384Z,20
2017-06-02T08:57:44.599Z,20
2017-06-02T08:58:47.744Z,20
2017-06-02T08:59:50.586Z,20
2017-06-02T09:00:53.435Z,20
2017-06-02T09:01:56.285Z,20
2017-06-02T09:02:59.633Z,20.1
2017-06-02T09:04:02.730Z,20.1
2017-06-02T09:05:05.576Z,20.1
2017-06-02T09:06:08.289Z,20.1
2017-06-02T09:07:11.005Z,20.2
2017-06-02T09:08:14.363Z,20.2
2017-06-02T09:09:17.464Z,20.2
2017-06-02T09:10:20.310Z,20.2
2017-06-02T09:11:23.156Z,20.2
2017-06-02T09:12:25.998Z,20.1
2017-06-02T09:13:29.218Z,20.3
2017-06-02T09:14:32.319Z,20.3
2017-06-02T09:15:35.172Z,20.3
2017-06-02T09:16:38.022Z,20.3
2017-06-02T09:17:40.871Z,20.3
2017-06-02T09:18:44.090Z,20.3
2017-06-02T09:19:47.204Z,20.3
2017-06-02T09:20:50.070Z,20.4
2017-06-02T09:21:52.916Z,20.4
2017-06-02T09:22:55.627Z,20.5
2017-06-02T09:23:58.980Z,20.5
2017-06-02T09:25:02.084Z,20.5
2017-06-02T09:26:04.934Z,20.5
2017-06-02T09:27:07.510Z,20.5
2017-06-02T09:28:10.587Z,20.5
2017-06-02T09:29:13.801Z,20.5
2017-06-02T09:30:17.465Z,20.5
2017-06-02T09:31:19.672Z,20.5
2017-06-02T09:32:22.882Z,20.5
2017-06-02T09:33:25.589Z,20.5
2017-06-02T09:34:28.804Z,20.5
2017-06-02T09:35:31.903Z,20.5
2017-06-02T09:36:35.180Z,20.5
2017-06-02T09:38:40.802Z,20.5
2017-06-02T09:39:43.645Z,20.6
2017-06-02T09:40:47.303Z,20.6
2017-06-02T09:41:49.648Z,20.9
2017-06-02T09:42:53.000Z,20.9
2017-06-02T09:43:55.716Z,20.9
2017-06-02T09:44:58.427Z,20.8
2017-06-02T09:46:02.028Z,20.8
2017-06-02T09:47:04.741Z,20.7
2017-06-02T09:48:07.587Z,20.8
2017-06-02T09:49:10.803Z,20.7
2017-06-02T09:50:13.652Z,20.7
2017-06-02T09:52:20.029Z,20.8
2017-06-02T09:53:22.736Z,20.8
2017-06-02T09:54:25.951Z,20.8
2017-06-02T09:55:28.797Z,20.8
2017-06-02T09:56:31.641Z,20.8
2017-06-02T09:57:35.237Z,20.8
2017-06-02T09:58:37.577Z,20.8
2017-06-02T09:59:40.928Z,20.8
2017-06-02T10:01:46.567Z,20.8
2017-06-02T10:02:50.169Z,20.9
2017-06-02T10:03:52.512Z,20.8
2017-06-02T10:04:55.728Z,20.8
2017-06-02T10:05:58.575Z,20.9
2017-06-02T10:07:01.847Z,20.9
2017-06-02T10:09:07.855Z,21
2017-06-02T10:10:10.429Z,21.1
2017-06-02T10:11:13.775Z,21.1
2017-06-02T10:12:16.620Z,21.1
2017-06-02T10:13:19.841Z,21.1
2017-06-02T10:14:22.717Z,21.1
2017-06-02T10:15:25.542Z,21.1
2017-06-02T10:16:28.752Z,21.1
2017-06-02T10:17:31.967Z,21
2017-06-02T10:18:34.681Z,21.1
2017-06-02T10:19:37.784Z,21.1
2017-06-02T10:20:40.627Z,21.2
2017-06-02T10:22:46.895Z,21.1
2017-06-02T10:23:49.736Z,21.1
2017-06-02T10:24:52.837Z,21.1
2017-06-02T10:25:55.683Z,21.1
2017-06-02T10:26:58.396Z,21.2
2017-06-02T10:28:02.299Z,21.2
2017-06-02T10:29:04.639Z,21.3
2017-06-02T10:30:07.547Z,21.2
2017-06-02T10:31:10.397Z,21.2
2017-06-02T10:32:13.752Z,21.1
2017-06-02T10:33:16.598Z,21.2
2017-06-02T10:34:19.444Z,21.2
2017-06-02T10:35:22.912Z,21.2
2017-06-02T10:36:25.261Z,21.2
2017-06-02T10:37:28.479Z,21.2
2017-06-02T10:38:31.328Z,21.3
2017-06-02T10:39:34.680Z,21.2
2017-06-02T10:40:37.782Z,21.2
2017-06-02T10:41:40.533Z,21.1
2017-06-02T10:42:43.108Z,21.2
2017-06-02T10:43:46.457Z,21.2
2017-06-02T10:44:49.171Z,21.2
2017-06-02T10:45:52.637Z,21.2
2017-06-02T10:46:55.483Z,21.2
2017-06-02T10:47:58.329Z,21.3
2017-06-02T10:49:01.175Z,21.3
2017-06-02T10:50:03.891Z,21.3
2017-06-02T10:51:07.225Z,21.3
2017-06-02T10:52:10.070Z,21.3
2017-06-02T10:53:13.290Z,21.3
2017-06-02T10:54:15.870Z,21.3
2017-06-02T10:55:19.085Z,21.3
2017-06-02T10:56:22.184Z,21.3
2017-06-02T10:57:25.031Z,21.3
2017-06-02T10:58:27.752Z,21.3
2017-06-02T10:59:30.969Z,21.3
2017-06-02T11:00:33.814Z,21.3
2017-06-02T11:01:36.914Z,21.3
2017-06-02T11:02:39.763Z,21.3
2017-06-02T11:03:42.609Z,21.3
2017-06-02T11:04:45.964Z,21.5
2017-06-02T11:06:51.987Z,21.5
2017-06-02T11:07:54.834Z,21.5
2017-06-02T11:10:00.461Z,21.5
2017-06-02T11:11:03.306Z,21.6
2017-06-02T11:12:06.906Z,21.5
2017-06-02T11:13:09.626Z,21.5
2017-06-02T11:14:12.341Z,21.5
2017-06-02T11:15:15.187Z,21.5
2017-06-02T11:17:21.566Z,21.5
2017-06-02T11:18:24.411Z,21.5
2017-06-02T11:19:27.119Z,21.5
2017-06-02T11:20:29.977Z,21.6
2017-06-02T11:21:33.327Z,21.5
2017-06-02T11:22:36.421Z,21.6
2017-06-02T11:23:39.002Z,21.6
2017-06-02T11:24:41.717Z,21.6
2017-06-02T11:25:45.072Z,21.6
2017-06-02T11:26:47.918Z,21.6
2017-06-02T11:27:51.123Z,21.6
2017-06-02T11:28:53.972Z,21.6
2017-06-02T11:29:56.823Z,21.7
2017-06-02T11:30:59.538Z,21.7
2017-06-02T11:32:02.891Z,21.8
2017-06-02T11:33:05.864Z,21.8
2017-06-02T11:34:08.441Z,21.8
2017-06-02T11:35:11.787Z,21.8
2017-06-02T11:36:14.635Z,21.8
2017-06-02T11:37:17.349Z,21.8
2017-06-02T11:38:20.813Z,21.8
2017-06-02T11:39:23.659Z,21.7
2017-06-02T11:40:26.376Z,21.7
2017-06-02T11:41:29.087Z,21.8
2017-06-02T11:42:32.434Z,21.7
2017-06-02T11:43:35.529Z,21.8
2017-06-02T11:44:38.371Z,21.8
2017-06-02T11:45:41.216Z,21.8
2017-06-02T11:46:44.059Z,21.8
2017-06-02T11:47:47.138Z,21.8
2017-06-02T11:48:50.474Z,21.9
2017-06-02T11:51:59.013Z,21.9
2017-06-02T11:53:01.858Z,21.9
2017-06-02T11:54:04.955Z,21.9
2017-06-02T11:55:07.805Z,21.9
2017-06-02T11:56:11.019Z,21.9
2017-06-02T11:57:13.866Z,21.9
2017-06-02T11:58:16.576Z,21.9
2017-06-02T11:59:20.177Z,21.9
2017-06-02T12:00:22.518Z,22
2017-06-02T12:01:25.737Z,22
2017-06-02T12:02:28.583Z,22
2017-06-02T12:03:31.294Z,22
2017-06-02T12:04:34.895Z,22
2017-06-02T12:05:37.236Z,22.1
2017-06-02T12:06:40.450Z,22.1
2017-06-02T12:07:43.159Z,22.1
2017-06-02T12:08:46.147Z,22.1
2017-06-02T12:09:49.614Z,22
2017-06-02T12:10:52.464Z,22.1
2017-06-02T12:11:54.924Z,22
2017-06-02T12:12:58.307Z,22.1
2017-06-02T12:14:01.156Z,22.1
2017-06-02T12:15:03.990Z,22.1
2017-06-02T12:16:06.701Z,22.1
2017-06-02T12:17:10.055Z,22.1
2017-06-02T12:18:12.763Z,22.1
2017-06-02T12:19:15.845Z,22.1
2017-06-02T12:20:19.312Z,22.1
2017-06-02T12:21:21.650Z,22.1
2017-06-02T12:22:25.000Z,22.1
2017-06-02T12:23:27.843Z,22.2
2017-06-02T12:24:31.253Z,22.2
2017-06-02T12:25:33.845Z,22.3
2017-06-02T12:26:36.690Z,22.3
2017-06-02T12:27:39.540Z,22.3
2017-06-02T12:28:42.389Z,22.3
2017-06-02T12:29:45.742Z,22.3
2017-06-02T12:30:48.723Z,22.3
2017-06-02T12:31:52.129Z,22.3
2017-06-02T12:32:54.469Z,22.5
2017-06-02T12:33:57.314Z,22.5
2017-06-02T12:35:00.161Z,22.6
2017-06-02T12:36:03.767Z,22.6
2017-06-02T12:37:06.114Z,22.6
2017-06-02T12:38:09.461Z,22.5
2017-06-02T12:40:15.220Z,22.5
2017-06-02T12:41:18.182Z,22.5
2017-06-02T12:42:20.897Z,22.7
2017-06-02T12:43:24.248Z,22.7
2017-06-02T12:44:26.864Z,22.7
2017-06-02T12:45:30.082Z,22.6
2017-06-02T12:46:33.043Z,22.7
2017-06-02T12:47:36.516Z,22.7
2017-06-02T12:48:38.723Z,22.6
2017-06-02T12:49:42.072Z,22.6
2017-06-02T12:50:44.915Z,22.6
2017-06-02T12:51:48.063Z,22.6
2017-06-02T12:52:50.913Z,22.6
2017-06-02T12:53:53.770Z,22.6
2017-06-02T12:54:56.613Z,22.6
2017-06-02T12:55:59.317Z,22.6
2017-06-02T12:57:02.782Z,22.6
2017-06-02T12:58:05.680Z,22.6
2017-06-02T12:59:08.397Z,22.6
2017-06-02T13:00:11.611Z,22.6
2017-06-02T13:01:14.455Z,22.6
2017-06-02T13:02:17.417Z,22.6
2017-06-02T13:03:20.125Z,22.7
2017-06-02T13:04:23.475Z,22.8
2017-06-02T13:05:26.183Z,22.8
2017-06-02T13:06:29.524Z,22.7
2017-06-02T13:07:32.486Z,22.7
2017-06-02T13:08:35.324Z,22.6
2017-06-02T13:09:38.164Z,22.6
2017-06-02T13:10:41.244Z,22.6
2017-06-02T13:11:43.956Z,22.6
2017-06-02T13:12:47.559Z,22.6
2017-06-02T13:13:49.900Z,22.6
2017-06-02T13:14:53.245Z,22.6
2017-06-02T13:15:55.953Z,22.7
2017-06-02T13:16:59.030Z,22.7
2017-06-02T13:18:01.991Z,22.7
2017-06-02T13:19:04.841Z,22.7
2017-06-02T13:20:08.058Z,22.8
2017-06-02T13:21:10.633Z,22.9
2017-06-02T13:22:13.981Z,22.8
2017-06-02T13:23:17.126Z,22.8
2017-06-02T13:25:22.893Z,22.8
2017-06-02T13:26:25.740Z,22.9
2017-06-02T13:27:28.453Z,22.9
2017-06-02T13:28:32.054Z,22.9
2017-06-02T13:29:34.260Z,22.8
2017-06-02T13:30:37.611Z,22.9
2017-06-02T13:31:40.456Z,23
2017-06-02T13:32:43.305Z,23
2017-06-02T13:33:46.905Z,23
2017-06-02T13:34:49.248Z,23
2017-06-02T13:35:52.593Z,23
2017-06-02T13:36:55.304Z,23
2017-06-02T13:37:58.513Z,23
2017-06-02T13:39:01.476Z,23.1
2017-06-02T13:41:07.103Z,23.1
2017-06-02T13:42:10.453Z,23.1
2017-06-02T13:43:13.302Z,23.2
2017-06-02T13:44:16.397Z,23.3
2017-06-02T13:45:19.242Z,23.3
2017-06-02T13:46:21.958Z,23.4
2017-06-02T13:47:25.307Z,23.4
2017-06-02T13:48:28.149Z,23.3
2017-06-02T13:49:31.252Z,23.3
2017-06-02T13:50:33.964Z,23.3
2017-06-02T13:51:36.810Z,23.3
2017-06-02T13:52:40.157Z,23.3
2017-06-02T13:53:43.002Z,23.2
2017-06-02T13:54:46.104Z,23.1
2017-06-02T13:55:48.950Z,23.1
2017-06-02T13:56:51.801Z,23.1
2017-06-02T13:57:54.513Z,23.2
2017-06-02T13:58:57.860Z,23.2
2017-06-02T14:00:00.961Z,23.3
2017-06-02T14:01:03.807Z,23.3
2017-06-02T14:02:06.830Z,23.4
2017-06-02T14:03:09.673Z,23.4
2017-06-02T14:04:12.554Z,23.4
2017-06-02T14:05:15.653Z,23.4
2017-06-02T14:06:18.367Z,23.4
2017-06-02T14:07:21.577Z,23.4
2017-06-02T14:09:27.199Z,23.4
2017-06-02T14:11:33.763Z,23.5
2017-06-02T14:12:36.614Z,23.5
2017-06-02T14:13:39.457Z,23.5
2017-06-02T14:14:42.297Z,23.5
2017-06-02T14:15:45.142Z,23.5
2017-06-02T14:16:48.661Z,23.4
2017-06-02T14:17:51.506Z,23.3
2017-06-02T14:18:54.217Z,23.3
2017-06-02T14:19:57.055Z,23.3
2017-06-02T14:21:00.407Z,23.4
2017-06-02T14:22:03.368Z,23.4
2017-06-02T14:23:06.082Z,23.5
2017-06-02T14:24:08.953Z,23.6
2017-06-02T14:25:12.309Z,23.6
2017-06-02T14:26:14.889Z,23.6
2017-06-02T14:27:18.486Z,23.6
2017-06-02T14:28:20.554Z,23.6
2017-06-02T14:29:23.901Z,23.6
2017-06-02T14:30:26.745Z,23.6
2017-06-02T14:31:29.823Z,23.6
2017-06-02T14:33:36.333Z,23.6
2017-06-02T14:34:38.674Z,23.5
2017-06-02T14:35:42.023Z,23.6
2017-06-02T14:36:44.867Z,23.6